Time;durP1;ratioP1;P1;durP2;ratioP2;P2;SDS_P1;SDS_P2;PMS_P1;PMS_P2;Temp;Humidity;BMP_temperature;BMP_pressure;BME280_temperature;BME280_humidity;BME280_pressure;Samples;Min_cycle;Max_cycle;Signal;HPM_P1;HPM_P2
2023/03/06 00:01:01;;;;;;;11.82;6.57;;;22.60;58.60;;;;;;5031309;28;20033;-72
2023/03/06 00:03:27;;;;;;;10.85;6.28;;;22.50;58.60;;;;;;5039949;28;20036;-72
2023/03/06 00:05:55;;;;;;;12.93;5.93;;;22.50;58.80;;;;;;5034482;28;20064;-72
2023/03/06 00:08:22;;;;;;;11.05;6.03;;;22.60;58.90;;;;;;5040165;28;20053;-72
2023/03/06 00:10:48;;;;;;;8.23;5.82;;;22.50;58.70;;;;;;5053453;28;20091;-72
2023/03/06 00:13:18;;;;;;;9.68;5.63;;;22.60;58.80;;;;;;5048335;28;20493;-72
2023/03/06 00:15:45;;;;;;;7.18;4.97;;;22.50;58.90;;;;;;5041591;28;20530;-72
2023/03/06 00:18:11;;;;;;;9.48;5.05;;;22.50;58.70;;;;;;5049474;28;20037;-72
2023/03/06 00:20:39;;;;;;;10.32;5.75;;;22.50;58.80;;;;;;5053426;28;20113;-72
2023/03/06 00:23:05;;;;;;;9.05;5.28;;;22.60;58.60;;;;;;5040466;28;20036;-72
2023/03/06 00:25:35;;;;;;;7.80;4.80;;;22.60;58.60;;;;;;5047211;28;20034;-72
2023/03/06 00:28:01;;;;;;;7.28;4.95;;;22.60;58.70;;;;;;5020112;28;20040;-72
2023/03/06 00:30:27;;;;;;;6.75;4.53;;;22.60;58.60;;;;;;5041335;28;20034;-71
2023/03/06 00:32:53;;;;;;;9.95;5.60;;;22.60;58.60;;;;;;5043471;28;20037;-72
2023/03/06 00:35:19;;;;;;;8.90;4.55;;;22.60;58.70;;;;;;5049992;28;20144;-72
2023/03/06 00:37:45;;;;;;;8.00;4.47;;;22.60;58.70;;;;;;5043646;28;20493;-72
2023/03/06 00:40:14;;;;;;;7.88;4.55;;;22.60;58.90;;;;;;5050610;28;20043;-72
2023/03/06 00:42:41;;;;;;;7.88;4.80;;;22.60;58.70;;;;;;5050021;28;20052;-72
2023/03/06 00:45:08;;;;;;;9.68;4.80;;;22.80;58.70;;;;;;5036829;28;20029;-72
2023/03/06 00:47:34;;;;;;;7.35;5.28;;;22.60;58.70;;;;;;5052585;28;20496;-72
2023/03/06 00:50:00;;;;;;;7.05;5.10;;;22.50;58.70;;;;;;5047619;28;20060;-72
2023/03/06 00:52:26;;;;;;;8.73;4.70;;;22.50;59.20;;;;;;5044329;28;20053;-72
2023/03/06 00:54:52;;;;;;;8.55;5.28;;;22.40;59.10;;;;;;5045777;28;20370;-72
2023/03/06 00:57:18;;;;;;;10.93;5.13;;;22.50;59.30;;;;;;5051714;28;20047;-72
2023/03/06 00:59:44;;;;;;;9.77;5.43;;;22.50;59.30;;;;;;5047719;28;20044;-72
2023/03/06 01:02:12;;;;;;;7.97;5.18;;;22.40;59.30;;;;;;5049188;28;20036;-72
2023/03/06 01:04:38;;;;;;;5.85;4.03;;;22.40;59.40;;;;;;5043521;28;20036;-72
2023/03/06 01:07:04;;;;;;;9.25;5.20;;;22.40;59.40;;;;;;5045651;28;20033;-72
2023/03/06 01:09:30;;;;;;;8.90;5.60;;;22.40;59.40;;;;;;5039480;28;20716;-72
2023/03/06 01:11:56;;;;;;;8.57;5.38;;;22.40;59.40;;;;;;5033762;28;20138;-72
2023/03/06 01:14:23;;;;;;;11.65;5.85;;;22.30;59.40;;;;;;5048427;28;20064;-72
2023/03/06 01:16:49;;;;;;;11.07;5.20;;;22.30;59.30;;;;;;5049190;28;20035;-72
2023/03/06 01:19:17;;;;;;;9.98;5.63;;;22.40;59.30;;;;;;5035096;28;20036;-72
2023/03/06 01:21:44;;;;;;;9.73;5.60;;;22.30;59.40;;;;;;5032042;28;20579;-72
2023/03/06 01:24:10;;;;;;;11.07;5.25;;;22.10;59.30;;;;;;5034901;28;20033;-72
2023/03/06 01:26:36;;;;;;;10.35;5.18;;;22.20;59.40;;;;;;5046522;28;20108;-72
2023/03/06 01:29:03;;;;;;;8.77;5.55;;;22.10;59.50;;;;;;5045229;28;20080;-72
2023/03/06 01:31:29;;;;;;;7.45;4.70;;;22.20;59.60;;;;;;5034068;28;20041;-72
2023/03/06 01:33:54;;;;;;;10.40;5.28;;;22.00;59.60;;;;;;5028138;28;20034;-72
2023/03/06 01:36:20;;;;;;;9.18;5.40;;;22.00;59.50;;;;;;5018892;28;20059;-72
2023/03/06 01:38:46;;;;;;;12.25;5.45;;;22.10;59.70;;;;;;5043355;28;20048;-72
2023/03/06 01:41:14;;;;;;;10.13;5.70;;;22.00;59.90;;;;;;5048210;28;20025;-72
2023/03/06 01:43:43;;;;;;;10.52;5.93;;;22.00;59.90;;;;;;5050878;28;20033;-71
2023/03/06 01:46:27;;;;;;;7.47;5.03;;;22.00;59.90;;;;;;5044259;28;20393;-72
2023/03/06 01:48:58;;;;;;;9.68;4.95;;;22.00;59.90;;;;;;5050156;28;20053;-72
2023/03/06 01:51:29;;;;;;;9.63;5.53;;;22.10;60.00;;;;;;5046539;28;20178;-72
2023/03/06 01:53:59;;;;;;;8.45;5.53;;;21.90;59.80;;;;;;5039756;28;20489;-72
2023/03/06 01:56:25;;;;;;;9.85;5.63;;;22.00;59.80;;;;;;5031009;28;20398;-72
2023/03/06 01:58:52;;;;;;;7.70;5.15;;;22.10;59.80;;;;;;5029718;28;20045;-72
2023/03/06 02:01:19;;;;;;;10.63;5.95;;;22.10;59.80;;;;;;5033866;28;20128;-72
2023/03/06 02:03:48;;;;;;;6.47;4.70;;;22.00;59.60;;;;;;5035856;28;20048;-72
2023/03/06 02:06:18;;;;;;;7.95;5.30;;;22.10;59.70;;;;;;5039775;28;20030;-72
2023/03/06 02:08:46;;;;;;;10.00;5.93;;;22.00;59.70;;;;;;5038668;28;20033;-72
2023/03/06 02:11:16;;;;;;;8.20;5.03;;;22.10;59.80;;;;;;5046979;28;20088;-72
2023/03/06 02:13:44;;;;;;;9.95;5.80;;;22.10;59.70;;;;;;5039696;28;20037;-72
2023/03/06 02:16:13;;;;;;;10.20;5.72;;;22.10;59.70;;;;;;5045200;28;20145;-72
2023/03/06 02:18:41;;;;;;;11.55;5.55;;;22.00;59.70;;;;;;5051595;28;20468;-72
2023/03/06 02:21:10;;;;;;;9.35;5.60;;;21.90;59.60;;;;;;5047099;28;20056;-72
2023/03/06 02:23:39;;;;;;;8.68;5.47;;;22.00;59.60;;;;;;5030970;28;20036;-72
2023/03/06 02:26:07;;;;;;;7.82;5.00;;;21.90;59.70;;;;;;5010041;28;20049;-72
2023/03/06 02:28:33;;;;;;;10.20;5.78;;;21.90;59.80;;;;;;5031081;28;20116;-72
2023/03/06 02:31:00;;;;;;;7.57;5.03;;;21.90;59.80;;;;;;5042719;28;20111;-72
2023/03/06 02:33:28;;;;;;;10.32;5.55;;;21.80;59.80;;;;;;5048351;28;20033;-70
2023/03/06 02:36:04;;;;;;;8.50;5.72;;;21.90;59.80;;;;;;5062963;28;20076;-72
2023/03/06 02:38:39;;;;;;;6.85;4.68;;;21.90;59.80;;;;;;5039019;28;20420;-72
2023/03/06 02:41:08;;;;;;;8.23;4.93;;;21.80;59.70;;;;;;5062673;28;20033;-72
2023/03/06 02:43:38;;;;;;;13.48;5.57;;;21.70;59.80;;;;;;5041800;28;20121;-72
2023/03/06 02:46:05;;;;;;;8.55;5.13;;;21.80;60.00;;;;;;5030018;28;20032;-72
2023/03/06 02:48:31;;;;;;;7.57;5.45;;;21.60;59.90;;;;;;5049864;28;20063;-71
2023/03/06 02:50:57;;;;;;;11.98;5.50;;;21.70;60.00;;;;;;5046054;28;20043;-72
2023/03/06 02:53:25;;;;;;;9.10;4.97;;;21.80;59.90;;;;;;5043075;28;20110;-72
2023/03/06 02:55:51;;;;;;;9.45;5.32;;;21.70;59.90;;;;;;5041101;28;20060;-72
2023/03/06 02:58:18;;;;;;;8.27;5.45;;;21.70;59.90;;;;;;5046188;28;20099;-72
2023/03/06 03:00:46;;;;;;;15.38;5.93;;;21.90;59.80;;;;;;5015172;28;20038;-72
2023/03/06 03:03:12;;;;;;;8.65;5.07;;;21.80;59.70;;;;;;5085011;28;20056;-72
2023/03/06 03:05:38;;;;;;;14.77;7.78;;;21.80;59.70;;;;;;5050139;28;20108;-72
2023/03/06 03:08:11;;;;;;;12.45;8.00;;;21.90;59.80;;;;;;5045797;28;20051;-72
2023/03/06 03:10:38;;;;;;;14.43;8.40;;;21.80;59.60;;;;;;5047536;28;20059;-72
2023/03/06 03:13:04;;;;;;;10.40;5.95;;;21.90;59.70;;;;;;5046496;28;20132;-71
2023/03/06 03:15:31;;;;;;;11.63;6.55;;;21.90;59.60;;;;;;5050466;28;20033;-72
2023/03/06 03:17:56;;;;;;;11.88;6.90;;;21.90;59.60;;;;;;5015563;28;20052;-72
2023/03/06 03:20:22;;;;;;;13.57;7.72;;;21.70;59.50;;;;;;5054603;28;20068;-72
2023/03/06 03:22:52;;;;;;;9.85;5.95;;;21.70;59.60;;;;;;5044981;28;20029;-72
2023/03/06 03:25:19;;;;;;;8.55;5.10;;;21.70;59.60;;;;;;5040411;28;20120;-72
2023/03/06 03:27:45;;;;;;;8.38;5.65;;;21.60;59.60;;;;;;5044664;28;20047;-72
2023/03/06 03:30:13;;;;;;;9.20;5.57;;;21.50;59.70;;;;;;5051318;28;20052;-72
2023/03/06 03:32:39;;;;;;;7.80;5.57;;;21.60;59.70;;;;;;5047956;28;20448;-72
2023/03/06 03:35:08;;;;;;;8.25;5.85;;;21.50;59.90;;;;;;5053160;28;20114;-72
2023/03/06 03:37:35;;;;;;;10.90;5.57;;;21.60;59.70;;;;;;5042825;28;20547;-72
2023/03/06 03:40:03;;;;;;;7.75;5.25;;;21.60;59.70;;;;;;5041873;28;20070;-72
2023/03/06 03:42:30;;;;;;;11.40;6.38;;;21.50;59.70;;;;;;5050840;28;20083;-72
2023/03/06 03:44:56;;;;;;;7.57;5.00;;;21.50;59.70;;;;;;5050628;28;20041;-72
2023/03/06 03:47:23;;;;;;;7.85;5.43;;;21.50;59.80;;;;;;5039934;28;20041;-72
2023/03/06 03:49:49;;;;;;;11.07;6.90;;;21.40;59.60;;;;;;5036810;28;20040;-72
2023/03/06 03:52:16;;;;;;;9.85;6.43;;;21.50;59.70;;;;;;5040356;28;20087;-72
2023/03/06 03:54:42;;;;;;;12.25;6.22;;;21.50;59.70;;;;;;5045653;28;20469;-72
2023/03/06 03:57:08;;;;;;;10.65;6.25;;;21.40;59.50;;;;;;5047921;28;20124;-72
2023/03/06 03:59:38;;;;;;;11.02;5.90;;;21.40;59.50;;;;;;5044642;28;20037;-72
2023/03/06 04:02:26;;;;;;;9.93;5.63;;;21.50;59.60;;;;;;5057087;28;20549;-72
2023/03/06 04:05:19;;;;;;;12.48;5.97;;;21.50;59.50;;;;;;5034088;28;20045;-72
2023/03/06 04:07:46;;;;;;;11.57;6.50;;;21.60;59.30;;;;;;5045746;28;20040;-72
2023/03/06 04:10:14;;;;;;;13.18;7.28;;;21.50;59.50;;;;;;5030957;28;20056;-72
2023/03/06 04:12:40;;;;;;;10.85;6.75;;;21.60;59.20;;;;;;5024006;28;20079;-72
2023/03/06 04:15:07;;;;;;;15.45;7.93;;;21.60;59.50;;;;;;5040836;28;20419;-71
2023/03/06 04:17:34;;;;;;;14.77;7.97;;;21.70;59.60;;;;;;5034283;28;20037;-72
2023/03/06 04:20:03;;;;;;;12.30;7.28;;;21.50;59.60;;;;;;5052546;28;20025;-72
2023/03/06 04:22:30;;;;;;;11.13;6.72;;;21.50;59.70;;;;;;5044523;28;20033;-72
2023/03/06 04:24:57;;;;;;;10.55;7.47;;;21.40;59.70;;;;;;5041382;28;20064;-72
2023/03/06 04:27:23;;;;;;;10.95;7.55;;;21.30;59.70;;;;;;5028875;28;20037;-72
2023/03/06 04:29:49;;;;;;;13.95;7.13;;;21.40;59.60;;;;;;5046109;28;20037;-72
2023/03/06 04:32:15;;;;;;;12.43;6.70;;;21.50;60.00;;;;;;5044110;28;20123;-72
2023/03/06 04:34:41;;;;;;;13.95;5.95;;;21.40;59.50;;;;;;5051245;28;20116;-72
2023/03/06 04:37:17;;;;;;;14.77;6.97;;;21.40;59.40;;;;;;5049838;28;20060;-72
2023/03/06 04:39:43;;;;;;;17.42;7.32;;;21.60;59.30;;;;;;5043765;28;20094;-72
2023/03/06 04:42:09;;;;;;;13.82;7.82;;;21.60;59.10;;;;;;5046575;28;20473;-72
2023/03/06 04:44:35;;;;;;;15.60;8.45;;;21.60;59.00;;;;;;5045725;28;20032;-72
2023/03/06 04:47:01;;;;;;;12.93;8.13;;;21.70;58.80;;;;;;5044402;28;20031;-72
2023/03/06 04:49:27;;;;;;;15.07;8.75;;;21.70;58.90;;;;;;5046301;28;20071;-72
2023/03/06 04:51:53;;;;;;;20.45;8.55;;;21.80;59.30;;;;;;5028521;28;20061;-72
2023/03/06 04:54:19;;;;;;;16.08;8.20;;;21.70;59.50;;;;;;5039208;28;20068;-72
2023/03/06 04:56:44;;;;;;;19.08;8.85;;;21.60;59.70;;;;;;5026426;28;20050;-72
2023/03/06 04:59:10;;;;;;;16.05;8.07;;;21.50;59.80;;;;;;5015910;28;20063;-72
2023/03/06 05:01:36;;;;;;;19.02;8.90;;;21.50;59.90;;;;;;5046597;28;20052;-72
2023/03/06 05:04:02;;;;;;;15.43;7.60;;;21.60;60.00;;;;;;5048833;28;20032;-72
2023/03/06 05:06:28;;;;;;;15.15;8.10;;;21.50;59.90;;;;;;5050296;28;20029;-72
2023/03/06 05:08:54;;;;;;;14.05;7.90;;;21.40;59.80;;;;;;5052228;28;20076;-72
2023/03/06 05:11:20;;;;;;;16.00;9.73;;;21.60;59.80;;;;;;5045845;28;20083;-72
2023/03/06 05:13:46;;;;;;;13.77;9.30;;;21.50;59.90;;;;;;5052649;28;20036;-72
2023/03/06 05:16:12;;;;;;;17.35;8.90;;;21.60;59.90;;;;;;5042668;28;20048;-72
2023/03/06 05:18:38;;;;;;;18.35;8.50;;;21.50;60.00;;;;;;5051389;28;20041;-72
2023/03/06 05:21:05;;;;;;;19.80;9.05;;;21.40;59.90;;;;;;5045411;28;20036;-72
2023/03/06 05:23:33;;;;;;;28.52;15.32;;;21.50;59.60;;;;;;5030128;28;20031;-72
2023/03/06 05:25:59;;;;;;;36.15;17.92;;;21.60;59.20;;;;;;5032458;28;20056;-72
2023/03/06 05:28:25;;;;;;;39.97;19.67;;;21.50;59.50;;;;;;5051935;28;20052;-72
2023/03/06 05:30:51;;;;;;;37.63;19.92;;;21.50;59.70;;;;;;5039400;28;20036;-73
2023/03/06 05:33:17;;;;;;;35.30;18.77;;;21.50;59.90;;;;;;5049306;28;20071;-72
2023/03/06 05:35:46;;;;;;;35.85;17.30;;;21.30;60.10;;;;;;5038155;28;20457;-72
2023/03/06 05:38:12;;;;;;;38.47;17.95;;;21.30;60.20;;;;;;5032236;28;20033;-72
2023/03/06 05:40:42;;;;;;;38.25;16.70;;;21.30;60.30;;;;;;5030401;28;20028;-72
2023/03/06 05:43:10;;;;;;;37.05;16.65;;;21.40;60.30;;;;;;5051949;28;20033;-72
2023/03/06 05:45:37;;;;;;;25.27;14.82;;;21.30;60.40;;;;;;5044131;28;20040;-72
2023/03/06 05:48:04;;;;;;;28.10;15.80;;;21.20;60.20;;;;;;5020995;28;20038;-72
2023/03/06 05:50:30;;;;;;;29.05;15.00;;;21.20;60.30;;;;;;5029430;28;20131;-72
2023/03/06 05:52:56;;;;;;;33.78;14.68;;;21.30;60.40;;;;;;5041823;28;20059;-72
2023/03/06 05:55:23;;;;;;;29.38;14.25;;;21.40;60.20;;;;;;5022533;28;20057;-72
2023/03/06 05:57:50;;;;;;;31.42;15.63;;;21.40;60.30;;;;;;5051110;28;20496;-72
2023/03/06 06:00:17;;;;;;;25.88;14.32;;;21.30;60.20;;;;;;5045852;28;20037;-72
2023/03/06 06:02:44;;;;;;;30.33;15.40;;;21.40;60.10;;;;;;5043134;28;20082;-72
2023/03/06 06:05:10;;;;;;;29.10;14.63;;;21.30;60.00;;;;;;5049763;28;20500;-72
2023/03/06 06:07:36;;;;;;;26.13;13.20;;;21.20;59.90;;;;;;5047518;28;20072;-72
2023/03/06 06:10:03;;;;;;;27.02;11.50;;;21.30;60.10;;;;;;5041558;28;20090;-72
2023/03/06 06:12:29;;;;;;;23.77;10.35;;;21.40;60.10;;;;;;5046132;28;20495;-72
2023/03/06 06:14:55;;;;;;;18.20;9.10;;;21.40;60.00;;;;;;5033464;28;20036;-72
2023/03/06 06:17:21;;;;;;;17.38;8.40;;;21.30;60.00;;;;;;5040604;28;20033;-72
2023/03/06 06:19:47;;;;;;;17.88;9.13;;;21.30;60.10;;;;;;5049732;28;20025;-72
2023/03/06 06:22:13;;;;;;;16.58;9.15;;;21.30;59.70;;;;;;5045628;28;20021;-72
2023/03/06 06:24:39;;;;;;;19.35;8.85;;;21.60;59.60;;;;;;5048088;28;20126;-72
2023/03/06 06:27:06;;;;;;;14.38;9.18;;;21.40;59.20;;;;;;5023209;28;20736;-72
2023/03/06 06:29:32;;;;;;;21.67;9.88;;;21.50;59.30;;;;;;5016807;28;20034;-72
2023/03/06 06:31:59;;;;;;;20.48;9.40;;;21.50;60.30;;;;;;5019739;28;20045;-73
2023/03/06 06:34:25;;;;;;;17.98;9.30;;;21.40;60.10;;;;;;5031382;28;20029;-73
2023/03/06 06:36:53;;;;;;;20.50;10.13;;;21.50;59.90;;;;;;5031093;28;20453;-72
2023/03/06 06:39:21;;;;;;;21.67;11.60;;;21.50;59.70;;;;;;5031242;28;20474;-73
2023/03/06 06:41:50;;;;;;;18.13;9.13;;;21.60;60.50;;;;;;5030000;28;20041;-73
2023/03/06 06:44:17;;;;;;;20.70;11.85;;;21.60;60.70;;;;;;5026967;28;20025;-72
2023/03/06 06:46:45;;;;;;;16.63;8.70;;;21.60;58.60;;;;;;5031470;28;20106;-74
2023/03/06 06:49:13;;;;;;;21.48;9.80;;;21.60;50.70;;;;;;5028103;28;20041;-73
2023/03/06 06:51:40;;;;;;;15.70;9.55;;;21.60;49.40;;;;;;5026695;28;20413;-74
2023/03/06 06:54:06;;;;;;;1.52;1.35;;;21.80;48.00;;;;;;5041975;28;20029;-75
2023/03/06 06:56:32;;;;;;;1.98;0.60;;;21.90;58.50;;;;;;5042626;28;20033;-74
2023/03/06 06:59:00;;;;;;;0.60;0.60;;;22.00;58.50;;;;;;5041402;28;20033;-73
2023/03/06 07:01:27;;;;;;;1.20;1.05;;;22.10;58.50;;;;;;5053915;28;20476;-71
2023/03/06 07:03:53;;;;;;;5.15;1.05;;;22.30;59.00;;;;;;5035662;28;20045;-72
2023/03/06 07:06:19;;;;;;;1.85;1.67;;;22.40;58.40;;;;;;5028271;28;20025;-71
2023/03/06 07:08:45;;;;;;;1.92;1.25;;;22.50;58.90;;;;;;5033693;28;20044;-71
2023/03/06 07:11:16;;;;;;;1.20;1.02;;;22.50;58.20;;;;;;5048140;28;20521;-71
2023/03/06 07:13:43;;;;;;;0.82;0.82;;;22.60;58.30;;;;;;5038165;28;20037;-73
2023/03/06 07:16:09;;;;;;;4.70;1.13;;;22.70;57.40;;;;;;5037924;28;20067;-72
2023/03/06 07:18:35;;;;;;;1.55;1.45;;;22.70;55.90;;;;;;5027341;28;20022;-72
2023/03/06 07:21:01;;;;;;;14.32;6.82;;;22.80;54.50;;;;;;5047835;28;20033;-74
2023/03/06 07:23:27;;;;;;;18.00;9.32;;;22.90;57.00;;;;;;5036442;28;20029;-73
2023/03/06 07:25:54;;;;;;;21.23;9.90;;;22.80;53.70;;;;;;5031984;28;20036;-71
2023/03/06 07:28:20;;;;;;;15.10;9.13;;;22.80;53.50;;;;;;5036929;28;20087;-72
2023/03/06 07:30:46;;;;;;;21.20;8.15;;;22.70;53.80;;;;;;5042711;28;20029;-72
2023/03/06 07:33:13;;;;;;;13.38;6.45;;;22.70;55.30;;;;;;5042907;28;20031;-72
2023/03/06 07:35:40;;;;;;;14.13;7.85;;;22.80;55.90;;;;;;5042476;28;20030;-75
2023/03/06 07:38:06;;;;;;;14.80;9.32;;;22.80;55.80;;;;;;5020639;28;20112;-73
2023/03/06 07:40:32;;;;;;;18.60;10.13;;;22.80;55.80;;;;;;5035291;28;20022;-74
2023/03/06 07:42:58;;;;;;;22.45;10.68;;;22.80;56.20;;;;;;5034570;28;20061;-76
2023/03/06 07:45:31;;;;;;;;;;;22.80;56.30;;;;;;5040815;28;20477;-74
2023/03/06 07:47:57;;;;;;;18.10;7.97;;;22.70;56.80;;;;;;5041706;28;19917;-74
2023/03/06 07:50:23;;;;;;;12.00;8.30;;;22.60;57.20;;;;;;5048174;28;20514;-76
2023/03/06 07:52:49;;;;;;;12.75;8.40;;;22.80;57.60;;;;;;5045044;28;20033;-74
2023/03/06 07:55:16;;;;;;;17.60;9.45;;;22.70;57.40;;;;;;5040094;28;20029;-77
2023/03/06 07:57:42;;;;;;;17.70;9.52;;;22.70;58.30;;;;;;5048674;28;20361;-74
2023/03/06 08:00:12;;;;;;;14.10;9.15;;;22.60;58.40;;;;;;5040731;28;20037;-76
2023/03/06 08:02:42;;;;;;;18.52;8.93;;;22.80;59.00;;;;;;5031138;28;20044;-75
2023/03/06 08:05:11;;;;;;;14.20;7.97;;;22.60;58.80;;;;;;5030472;28;20052;-74
2023/03/06 08:07:37;;;;;;;15.52;9.48;;;22.60;59.00;;;;;;5050570;28;20163;-77
2023/03/06 08:10:04;;;;;;;20.92;8.80;;;22.80;59.10;;;;;;5049200;28;20080;-71
2023/03/06 08:12:30;;;;;;;13.40;8.48;;;22.80;59.40;;;;;;5048457;28;20030;-71
2023/03/06 08:14:56;;;;;;;15.30;8.88;;;22.70;59.60;;;;;;5041880;28;20099;-73
2023/03/06 08:17:22;;;;;;;14.40;8.48;;;22.70;59.70;;;;;;5044453;28;20048;-73
2023/03/06 08:19:48;;;;;;;14.98;8.50;;;22.80;59.50;;;;;;5047262;28;20349;-73
2023/03/06 08:22:14;;;;;;;14.45;8.27;;;22.60;59.70;;;;;;5053509;28;20116;-74
2023/03/06 08:24:40;;;;;;;20.38;9.93;;;22.80;60.00;;;;;;5045743;28;20088;-74
2023/03/06 08:27:06;;;;;;;12.38;7.90;;;22.90;55.40;;;;;;5029051;28;20082;-76
2023/03/06 08:29:32;;;;;;;13.85;7.63;;;23.00;51.20;;;;;;5028260;28;20436;-72
2023/03/06 08:31:58;;;;;;;16.40;8.48;;;23.20;49.70;;;;;;5035233;28;20131;-73
2023/03/06 08:34:25;;;;;;;12.60;7.07;;;23.40;52.50;;;;;;5044178;28;20052;-72
2023/03/06 08:36:51;;;;;;;11.02;6.55;;;23.30;55.90;;;;;;5052922;28;20044;-73
2023/03/06 08:39:17;;;;;;;13.05;5.13;;;23.20;57.00;;;;;;5048567;28;20048;-73
2023/03/06 08:41:44;;;;;;;7.88;4.75;;;23.20;59.60;;;;;;5051353;28;20100;-75
2023/03/06 08:44:10;;;;;;;6.60;3.65;;;23.30;60.50;;;;;;5035007;28;20034;-74
2023/03/06 08:46:37;;;;;;;9.05;4.13;;;23.20;59.60;;;;;;5045583;28;20108;-69
2023/03/06 08:49:03;;;;;;;7.80;4.07;;;23.30;58.80;;;;;;5043621;28;20060;-73
2023/03/06 08:51:29;;;;;;;6.50;3.63;;;23.20;59.50;;;;;;5048790;28;20029;-74
2023/03/06 08:53:56;;;;;;;8.00;5.10;;;23.20;59.90;;;;;;5027159;28;20032;-73
2023/03/06 08:56:27;;;;;;;10.25;5.78;;;23.30;59.30;;;;;;5046649;28;20037;-72
2023/03/06 08:58:54;;;;;;;18.73;8.18;;;23.40;51.50;;;;;;5044824;28;20097;-72
2023/03/06 09:01:31;;;;;;;8.90;5.47;;;23.80;54.20;;;;;;5031513;28;20064;-73
2023/03/06 09:03:59;;;;;;;9.13;5.30;;;23.90;57.70;;;;;;5038590;28;20045;-72
2023/03/06 09:06:28;;;;;;;8.93;5.70;;;23.90;58.20;;;;;;5042362;28;20051;-73
2023/03/06 09:08:54;;;;;;;9.50;5.07;;;23.80;58.20;;;;;;5051539;28;20041;-75
2023/03/06 09:11:22;;;;;;;8.07;5.38;;;23.90;58.30;;;;;;5043170;28;20589;-75
2023/03/06 09:13:49;;;;;;;9.30;4.57;;;23.70;58.00;;;;;;5044926;28;20119;-73
2023/03/06 09:16:15;;;;;;;4.95;4.10;;;23.80;58.90;;;;;;5041869;28;20037;-74
2023/03/06 09:18:41;;;;;;;6.55;4.53;;;23.80;59.10;;;;;;5044837;28;20400;-72
2023/03/06 09:21:08;;;;;;;8.27;4.80;;;23.80;59.10;;;;;;5045967;28;20043;-73
2023/03/06 09:23:35;;;;;;;5.78;4.15;;;23.70;59.40;;;;;;5035909;28;20034;-79
2023/03/06 09:26:02;;;;;;;5.95;4.13;;;23.70;59.30;;;;;;5029227;28;20079;-73
2023/03/06 09:28:27;;;;;;;7.30;4.38;;;23.70;59.40;;;;;;5046515;28;20037;-74
2023/03/06 09:30:54;;;;;;;6.93;4.05;;;23.90;59.60;;;;;;5036801;28;20033;-75
2023/03/06 09:33:20;;;;;;;9.20;4.32;;;23.80;59.40;;;;;;5043992;28;20083;-75
2023/03/06 09:35:53;;;;;;;12.45;5.00;;;23.90;59.50;;;;;;5043861;28;20017;-75
2023/03/06 09:38:21;;;;;;;4.65;3.90;;;23.80;59.40;;;;;;5027410;28;20556;-74
2023/03/06 09:40:47;;;;;;;7.25;4.60;;;23.80;59.30;;;;;;5021842;28;22401;-76
2023/03/06 09:43:22;;;;;;;6.78;4.43;;;23.80;59.20;;;;;;5023753;28;20045;-74
2023/03/06 09:45:49;;;;;;;6.25;4.47;;;23.70;59.10;;;;;;5024188;28;20366;-75
2023/03/06 09:48:17;;;;;;;7.05;4.45;;;23.90;59.20;;;;;;5034163;28;20034;-75
2023/03/06 09:50:50;;;;;;;5.93;3.80;;;23.80;59.10;;;;;;5012527;28;20108;-77
2023/03/06 09:53:44;;;;;;;7.00;3.47;;;23.90;59.30;;;;;;5045835;28;20084;-75
2023/03/06 09:56:19;;;;;;;14.25;3.80;;;23.80;59.20;;;;;;5038046;28;20029;-77
2023/03/06 09:58:58;;;;;;;11.20;3.28;;;23.70;59.60;;;;;;5017618;28;20153;-76
2023/03/06 10:01:29;;;;;;;4.75;3.60;;;23.70;59.40;;;;;;5031708;28;20041;-76
2023/03/06 10:04:32;;;;;;;3.58;3.05;;;23.80;59.50;;;;;;5022915;28;20048;-75
2023/03/06 10:07:14;;;;;;;8.55;3.97;;;23.80;59.60;;;;;;5033419;28;20047;-73
2023/03/06 10:10:01;;;;;;;4.88;3.30;;;23.70;59.70;;;;;;5029812;28;20045;-72
2023/03/06 10:12:34;;;;;;;6.25;3.45;;;23.60;60.40;;;;;;5036578;28;20026;-75
2023/03/06 10:15:12;;;;;;;5.68;3.63;;;23.60;60.20;;;;;;5044990;28;20170;-76
2023/03/06 10:17:41;;;;;;;5.25;3.30;;;23.80;60.30;;;;;;5032851;28;20045;-75
2023/03/06 10:20:21;;;;;;;5.30;3.47;;;23.70;60.30;;;;;;5012527;28;20087;-74
2023/03/06 10:23:20;;;;;;;6.38;3.28;;;23.70;60.40;;;;;;5026756;28;20397;-75
2023/03/06 10:25:59;;;;;;;5.15;3.53;;;23.70;60.60;;;;;;4976161;28;20050;-76
2023/03/06 10:28:38;;;;;;;5.45;3.70;;;23.70;60.60;;;;;;4970413;28;20044;-75
2023/03/06 10:31:23;;;;;;;5.65;3.25;;;23.80;60.50;;;;;;4974655;28;20054;-77
2023/03/06 10:33:55;;;;;;;6.20;4.03;;;23.70;60.60;;;;;;4981376;28;20495;-75
2023/03/06 10:36:28;;;;;;;4.23;3.07;;;23.70;60.60;;;;;;4970537;28;20043;-75
2023/03/06 10:38:56;;;;;;;4.93;2.55;;;23.80;60.60;;;;;;4982949;28;20299;-79
2023/03/06 10:41:30;;;;;;;4.00;3.13;;;23.70;60.50;;;;;;4972929;28;20482;-75
2023/03/06 10:43:59;;;;;;;5.88;4.03;;;23.80;60.50;;;;;;4982091;28;20050;-73
2023/03/06 10:46:29;;;;;;;8.45;3.97;;;23.70;60.50;;;;;;4973322;28;20041;-72
2023/03/06 10:49:01;;;;;;;8.52;3.83;;;23.90;60.60;;;;;;4977314;28;20054;-75
2023/03/06 10:51:28;;;;;;;12.05;4.85;;;23.90;60.90;;;;;;4969944;28;20043;-74
2023/03/06 10:54:15;;;;;;;5.70;3.95;;;24.00;57.00;;;;;;4980067;28;20050;-75
2023/03/06 10:56:43;;;;;;;7.20;3.90;;;24.20;56.50;;;;;;4979516;28;20245;-80
2023/03/06 10:59:26;;;;;;;7.72;3.97;;;24.30;55.40;;;;;;4968852;28;20122;-75
2023/03/06 11:01:56;;;;;;;5.65;3.20;;;24.30;44.80;;;;;;4988172;28;20046;-74
2023/03/06 11:04:29;;;;;;;7.57;4.22;;;24.10;43.20;;;;;;5044541;28;20055;-72
2023/03/06 11:07:32;;;;;;;6.03;3.35;;;24.10;41.00;;;;;;5033359;28;20041;-74
2023/03/06 11:09:58;;;;;;;13.38;5.30;;;24.00;40.60;;;;;;5046587;28;20485;-72
2023/03/06 11:12:38;;;;;;;7.03;4.35;;;24.10;44.10;;;;;;5040552;28;20041;-73
2023/03/06 11:15:20;;;;;;;6.75;4.53;;;24.00;43.40;;;;;;5042104;28;20042;-72
2023/03/06 11:17:55;;;;;;;7.85;4.85;;;24.20;41.90;;;;;;5015066;28;20064;-73
2023/03/06 11:20:51;;;;;;;8.38;5.10;;;24.10;38.80;;;;;;5043170;28;20570;-74
2023/03/06 11:23:18;;;;;;;9.95;5.15;;;24.00;38.60;;;;;;4979573;28;20045;-73
2023/03/06 11:25:58;;;;;;;7.50;5.50;;;24.00;37.70;;;;;;4971873;28;20056;-73
2023/03/06 11:28:26;;;;;;;8.27;4.55;;;23.90;35.90;;;;;;4987019;28;20538;-72
2023/03/06 11:31:19;;;;;;;9.70;4.93;;;23.90;36.60;;;;;;4979425;28;20133;-71
2023/03/06 11:33:57;;;;;;;10.63;5.45;;;23.90;46.00;;;;;;4977745;28;20061;-71
2023/03/06 11:36:30;;;;;;;10.45;4.88;;;24.20;48.10;;;;;;4980361;28;20530;-74
2023/03/06 11:38:56;;;;;;;6.47;4.40;;;24.30;47.50;;;;;;4978108;28;20045;-74
2023/03/06 11:41:46;;;;;;;10.27;4.90;;;24.30;48.60;;;;;;4971075;28;20133;-74
2023/03/06 11:44:23;;;;;;;6.38;4.65;;;24.30;41.10;;;;;;4977626;28;20043;-74
2023/03/06 11:46:56;;;;;;;5.70;3.90;;;24.10;40.70;;;;;;4962086;28;20035;-74
2023/03/06 11:49:31;;;;;;;8.10;4.53;;;24.10;38.00;;;;;;4981694;28;20073;-74
2023/03/06 11:52:03;;;;;;;8.85;4.32;;;23.90;39.60;;;;;;4978153;28;20030;-74
2023/03/06 11:54:30;;;;;;;5.90;4.35;;;24.10;37.40;;;;;;4980382;28;20128;-73
2023/03/06 11:57:04;;;;;;;7.13;4.05;;;23.90;38.70;;;;;;4992237;28;20098;-74
2023/03/06 11:59:42;;;;;;;6.05;4.07;;;23.90;36.20;;;;;;5002415;28;20047;-74
2023/03/06 12:02:42;;;;;;;14.23;4.75;;;23.90;38.20;;;;;;5046995;28;20472;-73
2023/03/06 12:05:07;;;;;;;6.72;4.45;;;23.90;36.40;;;;;;5030786;28;20043;-77
2023/03/06 12:07:53;;;;;;;7.85;4.75;;;24.00;35.60;;;;;;5039297;28;20467;-76
2023/03/06 12:10:37;;;;;;;6.38;3.83;;;23.80;37.30;;;;;;5023721;28;20056;-75
2023/03/06 12:13:26;;;;;;;9.15;4.63;;;23.80;36.00;;;;;;5029831;28;20057;-75
2023/03/06 12:16:17;;;;;;;7.70;4.13;;;23.80;36.30;;;;;;5017105;28;20125;-73
2023/03/06 12:18:58;;;;;;;4.22;3.50;;;23.70;35.80;;;;;;5021353;28;20108;-75
2023/03/06 12:21:27;;;;;;;4.30;2.40;;;23.80;34.70;;;;;;5013049;28;20046;-73
2023/03/06 12:24:07;;;;;;;4.18;2.95;;;23.60;49.80;;;;;;5024917;28;20065;-73
2023/03/06 12:26:54;;;;;;;4.97;3.03;;;23.80;52.80;;;;;;5024926;28;20041;-73
2023/03/06 12:29:40;;;;;;;4.75;3.10;;;23.60;53.10;;;;;;5016618;28;20084;-72
2023/03/06 12:32:35;;;;;;;4.15;2.67;;;23.80;53.60;;;;;;5023144;28;20581;-75
2023/03/06 12:35:25;;;;;;;4.22;2.60;;;23.70;54.20;;;;;;4920871;29;20450;-74
2023/03/06 12:38:45;;;;;;;4.05;2.28;;;23.70;54.40;;;;;;4902319;29;20365;-74
2023/03/06 12:41:23;;;;;;;5.07;2.95;;;23.80;54.70;;;;;;4857556;29;20129;-75
2023/03/06 12:43:52;;;;;;;8.35;2.50;;;23.70;55.10;;;;;;4847249;29;20054;-74
2023/03/06 12:46:27;;;;;;;4.00;2.50;;;23.70;55.30;;;;;;4835954;29;20568;-74
2023/03/06 12:49:20;;;;;;;6.28;3.45;;;23.70;55.50;;;;;;4848650;29;20057;-73
2023/03/06 12:51:46;;;;;;;5.18;2.33;;;23.70;54.80;;;;;;4874076;29;20450;-74
2023/03/06 12:54:13;;;;;;;4.25;2.40;;;23.60;55.30;;;;;;4857447;29;20116;-74